createdAt,value
2022-10-09T00:00:01.605Z,28.52
2022-10-09T00:00:50.146Z,32.15
2022-10-09T00:01:36.924Z,35.92
2022-10-09T00:02:23.870Z,36.97
2022-10-09T00:03:11.284Z,41.08
2022-10-09T00:03:59.244Z,40.33
2022-10-09T00:04:46.035Z,42.17
2022-10-09T00:05:33.127Z,44.20
2022-10-09T00:06:26.065Z,43.28
2022-10-09T00:07:12.857Z,33.72
2022-10-09T00:07:59.734Z,39.53
2022-10-09T00:08:46.776Z,38.15
2022-10-09T00:09:33.705Z,40.38
2022-10-09T00:10:20.694Z,42.05
2022-10-09T00:11:08.888Z,43.70
2022-10-09T00:11:55.716Z,49.30
2022-10-09T00:12:42.565Z,45.05
2022-10-09T00:13:29.315Z,47.08
2022-10-09T00:14:16.205Z,38.83
2022-10-09T00:15:03.283Z,34.67
2022-10-09T00:15:50.115Z,41.22
2022-10-09T00:16:37.118Z,41.67
2022-10-09T00:17:23.945Z,47.05
2022-10-09T00:18:12.424Z,51.83
2022-10-09T00:18:59.294Z,45.25
2022-10-09T00:19:46.139Z,38.55
2022-10-09T00:20:39.516Z,37.95
2022-10-09T00:21:32.416Z,38.75
2022-10-09T00:22:19.154Z,36.33
2022-10-09T00:23:06.765Z,35.10
2022-10-09T00:23:55.514Z,29.90
2022-10-09T00:24:43.044Z,35.13
2022-10-09T00:25:29.823Z,42.95
2022-10-09T00:26:17.405Z,44.50
2022-10-09T00:27:04.134Z,43.72
2022-10-09T00:27:50.875Z,37.13
2022-10-09T00:28:38.982Z,49.35
2022-10-09T00:29:26.095Z,45.05
2022-10-09T00:30:13.168Z,45.25
2022-10-09T00:31:00.090Z,49.75
2022-10-09T00:31:46.995Z,49.60
2022-10-09T00:32:33.825Z,52.78
2022-10-09T00:33:20.937Z,58.80
2022-10-09T00:34:07.644Z,55.25
2022-10-09T00:34:54.463Z,55.58
2022-10-09T00:35:41.662Z,54.83
2022-10-09T00:36:28.484Z,56.40
2022-10-09T00:37:15.284Z,58.97
2022-10-09T00:38:02.055Z,60.30
2022-10-09T00:38:49.378Z,58.45
2022-10-09T00:39:36.174Z,54.15
2022-10-09T00:40:24.115Z,57.62
2022-10-09T00:41:20.447Z,57.30
2022-10-09T00:42:07.286Z,54.58
2022-10-09T00:42:57.675Z,56.88
2022-10-09T00:43:50.177Z,50.83
2022-10-09T00:45:00.053Z,50.40
2022-10-09T00:45:54.648Z,55.65
2022-10-09T00:46:50.437Z,43.55
2022-10-09T00:47:42.244Z,45.12
2022-10-09T00:48:28.965Z,45.10
2022-10-09T00:49:25.804Z,40.90
2022-10-09T00:50:30.382Z,52.62
2022-10-09T00:51:17.244Z,46.08
2022-10-09T00:52:07.015Z,39.08
2022-10-09T00:52:58.065Z,38.97
2022-10-09T00:53:44.823Z,46.50
2022-10-09T00:54:33.475Z,47.42
2022-10-09T00:55:21.419Z,42.00
2022-10-09T00:56:08.274Z,48.10
2022-10-09T00:56:55.212Z,52.97
2022-10-09T00:57:42.185Z,55.25
2022-10-09T00:58:29.076Z,52.42
2022-10-09T00:59:17.134Z,62.13
2022-10-09T01:00:07.404Z,51.37
2022-10-09T01:00:54.345Z,51.05
2022-10-09T01:01:41.982Z,56.37
2022-10-09T01:02:29.150Z,53.80
2022-10-09T01:03:16.055Z,50.45
2022-10-09T01:04:02.845Z,52.45
2022-10-09T01:04:49.634Z,51.22
2022-10-09T01:06:08.814Z,54.95
2022-10-09T01:07:23.764Z,47.65
2022-10-09T01:08:26.399Z,49.33
2022-10-09T01:09:20.637Z,46.17
2022-10-09T01:10:29.234Z,48.63
2022-10-09T01:11:34.733Z,52.00
2022-10-09T01:12:32.244Z,51.20
2022-10-09T01:13:26.133Z,49.00
2022-10-09T01:14:28.914Z,49.17
2022-10-09T01:15:44.833Z,51.05
2022-10-09T01:16:36.665Z,51.30
2022-10-09T01:17:33.974Z,55.17
2022-10-09T01:18:32.426Z,36.10
2022-10-09T01:19:21.864Z,42.60
2022-10-09T01:20:43.754Z,40.22
2022-10-09T01:21:36.280Z,39.70
2022-10-09T01:22:22.944Z,34.70
2022-10-09T01:23:34.361Z,40.55
2022-10-09T01:24:42.356Z,37.67
2022-10-09T01:25:44.276Z,41.80
2022-10-09T01:26:31.076Z,41.22
2022-10-09T01:27:23.685Z,44.90
2022-10-09T01:28:11.450Z,42.15
2022-10-09T01:29:00.813Z,42.92
2022-10-09T01:30:00.634Z,38.17
2022-10-09T01:30:48.136Z,39.50
2022-10-09T01:31:39.784Z,42.10
2022-10-09T01:32:32.014Z,46.50
2022-10-09T01:33:19.014Z,47.08
2022-10-09T01:34:07.325Z,50.22
2022-10-09T01:34:54.694Z,45.25
2022-10-09T01:35:41.894Z,50.63
2022-10-09T01:36:30.657Z,51.00
2022-10-09T01:37:19.084Z,54.92
2022-10-09T01:38:06.987Z,55.03
2022-10-09T01:38:54.519Z,50.67
2022-10-09T01:39:42.134Z,52.72
2022-10-09T01:40:29.664Z,48.58
2022-10-09T01:41:16.725Z,48.58
2022-10-09T01:42:04.436Z,45.08
2022-10-09T01:42:51.496Z,48.72
2022-10-09T01:43:38.495Z,50.83
2022-10-09T01:44:34.843Z,47.03
2022-10-09T01:45:21.805Z,46.90
2022-10-09T01:46:37.684Z,49.00
2022-10-09T01:47:24.984Z,48.75
2022-10-09T01:48:19.304Z,47.05
2022-10-09T01:49:31.144Z,44.22
2022-10-09T01:50:29.276Z,45.67
2022-10-09T01:51:16.153Z,42.83
2022-10-09T01:52:09.074Z,42.72
2022-10-09T01:53:00.694Z,41.22
2022-10-09T01:53:48.244Z,44.33
2022-10-09T01:55:04.794Z,43.70
2022-10-09T01:56:04.434Z,45.20
2022-10-09T01:56:51.805Z,47.17
2022-10-09T01:58:00.443Z,42.17
2022-10-09T01:58:53.555Z,43.70
2022-10-09T01:59:42.927Z,42.17
2022-10-09T02:00:33.935Z,45.08
2022-10-09T02:01:33.453Z,40.88
2022-10-09T02:02:21.390Z,38.80
2022-10-09T02:03:10.965Z,43.42
2022-10-09T02:03:59.046Z,43.53
2022-10-09T02:04:45.964Z,40.35
2022-10-09T02:05:33.117Z,42.62
2022-10-09T02:06:20.865Z,36.55
2022-10-09T02:07:08.164Z,38.97
2022-10-09T02:07:55.575Z,36.55
2022-10-09T02:08:44.243Z,36.95
2022-10-09T02:09:31.144Z,34.67
2022-10-09T02:10:19.046Z,35.55
2022-10-09T02:11:06.928Z,35.05
2022-10-09T02:11:56.013Z,40.22
2022-10-09T02:12:46.251Z,35.38
2022-10-09T02:13:34.565Z,35.83
2022-10-09T02:14:21.645Z,38.03
2022-10-09T02:15:09.463Z,35.80
2022-10-09T02:16:05.580Z,36.38
2022-10-09T02:17:05.363Z,36.20
2022-10-09T02:17:54.864Z,38.33
2022-10-09T02:18:47.002Z,35.05
2022-10-09T02:20:13.294Z,35.20
2022-10-09T02:21:04.444Z,36.50
2022-10-09T02:21:55.964Z,34.80
2022-10-09T02:22:43.203Z,36.83
2022-10-09T02:23:30.983Z,39.72
2022-10-09T02:24:20.876Z,40.70
2022-10-09T02:25:27.569Z,40.22
2022-10-09T02:26:15.964Z,37.95
2022-10-09T02:27:32.139Z,35.38
2022-10-09T02:28:25.823Z,38.80
2022-10-09T02:40:22.417Z,33.47
2022-10-09T02:41:09.178Z,31.62
2022-10-09T02:41:58.136Z,38.38
2022-10-09T02:52:20.344Z,34.65
2022-10-09T02:53:15.639Z,37.80
2022-10-09T02:56:16.684Z,36.28
2022-10-09T02:58:05.104Z,34.70
2022-10-09T02:58:55.703Z,34.42
2022-10-09T03:03:39.886Z,34.47
2022-10-09T03:16:08.141Z,33.50
2022-10-09T03:17:29.733Z,32.17
2022-10-09T03:32:51.893Z,28.10
2022-10-09T03:33:40.704Z,31.52
2022-10-09T03:42:03.284Z,26.42
2022-10-09T03:42:50.517Z,31.45
2022-10-09T03:43:37.627Z,26.77
2022-10-09T03:44:24.415Z,26.10
2022-10-09T03:51:49.639Z,30.35
2022-10-09T03:52:36.567Z,26.40
2022-10-09T03:57:03.554Z,24.80
2022-10-09T03:58:47.626Z,29.55
2022-10-09T04:00:48.150Z,25.75
2022-10-09T04:01:41.295Z,25.05
2022-10-09T04:45:24.567Z,19.02
2022-10-09T04:46:13.700Z,20.15
2022-10-09T04:47:00.556Z,20.30
2022-10-09T04:47:49.294Z,19.15
2022-10-09T04:53:21.006Z,18.80
2022-10-09T04:54:31.546Z,18.62
2022-10-09T04:57:16.986Z,15.65
2022-10-09T04:58:03.776Z,18.27
2022-10-09T04:58:50.922Z,18.35
2022-10-09T04:59:37.659Z,18.73
2022-10-09T05:00:24.475Z,16.67
2022-10-09T05:01:17.131Z,15.70
2022-10-09T05:08:57.015Z,16.95
2022-10-09T05:09:46.857Z,15.75
2022-10-09T05:13:47.304Z,16.50
2022-10-09T05:14:37.525Z,17.57
2022-10-09T05:16:13.208Z,16.50
2022-10-09T05:17:14.390Z,13.62
2022-10-09T05:19:11.686Z,14.68
2022-10-09T05:20:08.754Z,15.55
2022-10-09T05:20:56.684Z,15.07
2022-10-09T05:21:45.518Z,14.48
2022-10-09T05:22:32.295Z,16.58
2022-10-09T05:23:19.085Z,13.82
2022-10-09T05:24:09.578Z,17.08
2022-10-09T05:24:57.266Z,13.50
2022-10-09T05:25:44.124Z,14.52
2022-10-09T05:26:32.486Z,15.18
2022-10-09T05:27:19.701Z,14.02
2022-10-09T05:28:18.140Z,14.07
2022-10-09T05:29:12.866Z,13.75
2022-10-09T05:30:02.316Z,16.25
2022-10-09T05:30:51.333Z,14.35
2022-10-09T05:31:38.975Z,16.02
2022-10-09T05:32:25.765Z,13.23
2022-10-09T05:33:12.626Z,16.37
2022-10-09T05:34:00.429Z,14.32
2022-10-09T05:34:47.235Z,13.07
2022-10-09T05:35:33.995Z,14.07
2022-10-09T05:36:21.004Z,13.62
2022-10-09T05:37:07.788Z,12.90
2022-10-09T05:37:54.555Z,14.75
2022-10-09T05:38:41.506Z,13.20
2022-10-09T05:39:28.344Z,14.75
2022-10-09T05:40:15.266Z,14.63
2022-10-09T05:41:05.974Z,19.40
2022-10-09T05:41:52.775Z,14.25
2022-10-09T05:42:39.587Z,15.45
2022-10-09T05:43:37.916Z,14.80
2022-10-09T05:44:25.077Z,14.00
2022-10-09T05:45:11.886Z,13.98
2022-10-09T05:46:23.945Z,14.05
2022-10-09T05:47:10.885Z,11.85
2022-10-09T05:47:57.656Z,12.57
2022-10-09T05:48:46.205Z,14.13
2022-10-09T05:49:33.006Z,13.73
2022-10-09T05:50:19.794Z,15.70
2022-10-09T05:51:14.554Z,16.45
2022-10-09T05:52:01.354Z,15.55
2022-10-09T05:52:48.341Z,12.80
2022-10-09T05:53:35.865Z,13.65
2022-10-09T05:54:22.725Z,14.98
2022-10-09T05:55:09.776Z,12.25
2022-10-09T05:55:59.414Z,12.77
2022-10-09T05:56:48.354Z,13.75
2022-10-09T05:57:35.055Z,11.75
2022-10-09T05:58:21.816Z,14.65
2022-10-09T05:59:15.039Z,12.13
2022-10-09T06:00:01.885Z,14.43
2022-10-09T06:00:48.615Z,14.57
2022-10-09T06:01:40.674Z,12.70
2022-10-09T06:02:27.581Z,15.73
2022-10-09T06:03:14.441Z,11.57
2022-10-09T06:04:01.745Z,12.65
2022-10-09T06:04:48.507Z,12.82
2022-10-09T06:05:35.275Z,11.27
2022-10-09T06:06:23.503Z,11.18
2022-10-09T06:07:11.224Z,11.63
2022-10-09T06:07:58.235Z,12.45
2022-10-09T06:08:45.055Z,13.45
2022-10-09T06:09:31.835Z,12.82
2022-10-09T06:10:18.634Z,11.82
2022-10-09T06:11:13.424Z,10.35
2022-10-09T06:12:00.362Z,14.40
2022-10-09T06:12:47.372Z,16.40
2022-10-09T06:13:34.379Z,10.80
2022-10-09T06:14:22.384Z,11.18
2022-10-09T06:15:09.485Z,12.15
2022-10-09T06:15:56.364Z,11.82
2022-10-09T06:16:44.984Z,12.05
2022-10-09T06:17:33.125Z,11.07
2022-10-09T06:18:20.334Z,12.82
2022-10-09T06:19:08.267Z,13.55
2022-10-09T06:19:55.387Z,12.82
2022-10-09T06:20:42.225Z,13.05
2022-10-09T06:21:29.574Z,15.27
2022-10-09T06:22:16.485Z,13.38
2022-10-09T06:23:03.349Z,12.35
2022-10-09T06:23:57.714Z,10.63
2022-10-09T06:24:44.627Z,12.40
2022-10-09T06:25:31.366Z,13.02
2022-10-09T06:26:21.665Z,15.93
2022-10-09T06:27:08.485Z,11.20
2022-10-09T06:27:55.244Z,9.55
2022-10-09T06:28:42.179Z,12.88
2022-10-09T06:29:30.325Z,14.43
2022-10-09T06:30:17.215Z,13.25
2022-10-09T06:31:12.074Z,11.85
2022-10-09T06:31:59.025Z,10.10
2022-10-09T06:32:45.866Z,13.90
2022-10-09T06:33:33.895Z,10.00
2022-10-09T06:34:20.816Z,14.40
2022-10-09T06:35:08.315Z,14.77
2022-10-09T06:36:00.780Z,10.68
2022-10-09T06:36:52.646Z,11.25
2022-10-09T06:37:39.468Z,8.90
2022-10-09T06:38:26.286Z,10.05
2022-10-09T06:39:13.088Z,13.05
2022-10-09T06:40:00.322Z,13.25
2022-10-09T06:40:47.115Z,12.90
2022-10-09T06:41:35.796Z,12.95
2022-10-09T06:42:22.585Z,11.57
2022-10-09T06:43:09.314Z,11.93
2022-10-09T06:44:02.106Z,11.68
2022-10-09T06:44:48.957Z,9.38
2022-10-09T06:45:38.594Z,11.88
2022-10-09T06:47:44.955Z,11.85
2022-10-09T06:48:37.118Z,15.48
2022-10-09T06:49:31.615Z,13.23
2022-10-09T06:50:18.638Z,13.55
2022-10-09T06:51:11.386Z,12.35
2022-10-09T06:51:58.187Z,11.70
2022-10-09T06:52:44.966Z,11.82
2022-10-09T06:53:35.159Z,15.13
2022-10-09T06:54:21.926Z,13.57
2022-10-09T06:55:09.287Z,10.70
2022-10-09T06:55:58.594Z,15.00
2022-10-09T06:56:45.706Z,10.65
2022-10-09T06:57:32.868Z,11.38
2022-10-09T06:58:19.848Z,12.90
2022-10-09T06:59:07.788Z,10.45
2022-10-09T06:59:54.627Z,10.70
2022-10-09T07:00:41.435Z,15.50
2022-10-09T07:01:32.687Z,13.05
2022-10-09T07:02:19.531Z,11.88
2022-10-09T07:03:06.501Z,13.90
2022-10-09T07:03:56.353Z,12.77
2022-10-09T07:04:43.734Z,13.23
2022-10-09T07:05:30.988Z,12.68
2022-10-09T07:06:20.145Z,13.52
2022-10-09T07:07:07.278Z,15.85
2022-10-09T07:07:56.444Z,11.88
2022-10-09T07:08:48.748Z,12.37
2022-10-09T07:09:35.685Z,11.57
2022-10-09T07:10:25.233Z,15.32
2022-10-09T07:11:14.834Z,13.40
2022-10-09T07:12:01.799Z,11.55
2022-10-09T07:12:48.927Z,13.05
2022-10-09T07:13:36.387Z,13.05
2022-10-09T07:14:23.177Z,14.87
2022-10-09T07:15:10.345Z,13.95
2022-10-09T07:15:59.499Z,12.32
2022-10-09T07:16:50.166Z,13.75
2022-10-09T07:17:36.985Z,12.48
2022-10-09T07:18:24.174Z,14.65
2022-10-09T07:19:12.149Z,15.85
2022-10-09T07:19:59.094Z,13.95
2022-10-09T07:20:45.871Z,13.00
2022-10-09T07:21:32.792Z,12.80
2022-10-09T07:22:21.601Z,11.35
2022-10-09T07:23:11.596Z,13.65
2022-10-09T07:24:02.435Z,13.60
2022-10-09T07:24:51.205Z,14.82
2022-10-09T07:25:38.997Z,11.77
2022-10-09T07:26:26.936Z,12.50
2022-10-09T07:27:13.907Z,14.30
2022-10-09T07:28:00.724Z,10.57
2022-10-09T07:28:48.523Z,12.50
2022-10-09T07:29:35.790Z,10.98
2022-10-09T07:30:22.672Z,11.02
2022-10-09T07:31:10.970Z,12.20
2022-10-09T07:31:57.828Z,13.35
2022-10-09T07:32:45.413Z,14.00
2022-10-09T07:33:33.038Z,12.05
2022-10-09T07:34:19.799Z,11.75
2022-10-09T07:35:07.466Z,12.52
2022-10-09T07:35:57.855Z,10.57
2022-10-09T07:36:44.856Z,13.50
2022-10-09T07:37:31.908Z,9.80
2022-10-09T07:38:18.816Z,11.00
2022-10-09T07:39:06.128Z,12.43
2022-10-09T07:39:53.025Z,11.23
2022-10-09T07:40:39.816Z,14.10
2022-10-09T07:41:28.884Z,10.80
2022-10-09T07:42:16.420Z,10.15
2022-10-09T07:43:03.672Z,13.27
2022-10-09T07:43:51.078Z,9.73
2022-10-09T07:44:37.837Z,10.45
2022-10-09T07:45:24.681Z,11.18
2022-10-09T07:46:13.291Z,11.82
2022-10-09T07:47:00.089Z,14.25
2022-10-09T07:47:47.364Z,13.62
2022-10-09T07:48:35.232Z,11.77
2022-10-09T07:49:21.975Z,13.80
2022-10-09T07:50:08.764Z,12.37
2022-10-09T07:50:57.167Z,10.38
2022-10-09T07:51:43.907Z,8.90
2022-10-09T07:52:30.677Z,10.30
2022-10-09T07:53:17.533Z,11.02
2022-10-09T07:54:04.555Z,14.57
2022-10-09T07:54:51.304Z,11.05
2022-10-09T07:55:46.135Z,10.15
2022-10-09T07:56:35.944Z,10.35
2022-10-09T07:57:22.746Z,9.93
2022-10-09T07:58:10.235Z,10.85
2022-10-09T07:58:59.523Z,10.35
2022-10-09T07:59:46.546Z,11.88
2022-10-09T08:00:33.596Z,10.93
2022-10-09T08:01:22.124Z,14.48
2022-10-09T08:02:09.426Z,11.27
2022-10-09T08:02:57.633Z,13.82
2022-10-09T08:03:44.835Z,11.82
2022-10-09T08:04:31.624Z,14.23
2022-10-09T08:05:18.707Z,10.73
2022-10-09T08:06:06.345Z,9.70
2022-10-09T08:06:53.155Z,9.68
2022-10-09T08:07:40.075Z,10.45
2022-10-09T08:08:27.127Z,10.35
2022-10-09T08:09:14.012Z,9.45
2022-10-09T08:10:00.834Z,8.75
2022-10-09T08:10:47.774Z,11.23
2022-10-09T08:11:35.427Z,9.57
2022-10-09T08:12:22.212Z,12.60
2022-10-09T08:13:08.941Z,11.98
2022-10-09T08:13:56.666Z,11.50
2022-10-09T08:14:43.694Z,8.70
2022-10-09T08:15:30.462Z,9.57
2022-10-09T08:16:18.905Z,7.97
2022-10-09T08:17:05.807Z,7.68
2022-10-09T08:17:53.905Z,10.13
2022-10-09T08:18:41.342Z,9.13
2022-10-09T08:19:28.604Z,8.77
2022-10-09T08:20:15.484Z,10.70
2022-10-09T08:21:05.584Z,11.65
2022-10-09T08:21:52.426Z,9.82
2022-10-09T08:22:39.208Z,8.93
2022-10-09T08:23:26.455Z,9.23
2022-10-09T08:24:13.600Z,10.07
2022-10-09T08:25:00.369Z,11.68
2022-10-09T08:25:48.113Z,9.95
2022-10-09T08:26:35.005Z,9.25
2022-10-09T08:27:21.965Z,7.37
2022-10-09T08:28:09.279Z,10.30
2022-10-09T08:28:59.074Z,11.05
2022-10-09T08:29:46.014Z,12.43
2022-10-09T08:30:32.922Z,11.85
2022-10-09T08:31:20.503Z,11.52
2022-10-09T08:32:07.285Z,11.70
2022-10-09T08:32:54.105Z,11.88
2022-10-09T08:33:41.008Z,13.70
2022-10-09T08:34:28.222Z,13.00
2022-10-09T08:35:14.966Z,11.82
2022-10-09T08:36:08.155Z,12.60
2022-10-09T08:36:55.123Z,9.48
2022-10-09T08:37:41.926Z,10.15
2022-10-09T08:38:46.825Z,10.70
2022-10-09T08:39:34.563Z,8.70
2022-10-09T08:40:29.774Z,10.80
2022-10-09T08:41:19.505Z,13.15
2022-10-09T08:42:06.483Z,12.60
2022-10-09T08:43:06.189Z,9.45
2022-10-09T08:43:58.064Z,9.38
2022-10-09T08:44:49.274Z,10.75
2022-10-09T08:45:38.946Z,10.90
2022-10-09T08:46:40.259Z,10.00
2022-10-09T08:47:41.464Z,11.77
2022-10-09T08:48:29.832Z,8.65
2022-10-09T08:49:47.838Z,10.68
2022-10-09T08:50:38.624Z,9.93
2022-10-09T08:51:31.125Z,9.95
2022-10-09T08:52:24.075Z,8.68
2022-10-09T08:53:25.981Z,10.27
2022-10-09T08:54:28.005Z,13.45
2022-10-09T08:55:20.468Z,8.45
2022-10-09T08:56:13.274Z,9.55
2022-10-09T08:57:03.506Z,10.00
2022-10-09T08:57:52.534Z,9.57
2022-10-09T08:58:40.696Z,8.68
2022-10-09T08:59:27.675Z,10.30
2022-10-09T09:00:16.915Z,7.20
2022-10-09T09:01:21.859Z,8.95
2022-10-09T09:02:41.495Z,8.50
2022-10-09T09:03:43.374Z,11.38
2022-10-09T09:04:38.878Z,9.63
2022-10-09T09:05:31.404Z,10.55
2022-10-09T09:06:34.535Z,7.55
2022-10-09T09:07:30.524Z,11.02
2022-10-09T09:08:38.245Z,7.10
2022-10-09T09:09:38.031Z,10.05
2022-10-09T09:10:41.954Z,6.37
2022-10-09T09:11:44.224Z,6.95
2022-10-09T09:12:51.093Z,10.10
2022-10-09T09:14:06.155Z,10.75
2022-10-09T09:15:23.446Z,8.35
2022-10-09T09:16:34.476Z,9.05
2022-10-09T09:17:46.731Z,8.30
2022-10-09T09:18:49.676Z,8.55
2022-10-09T09:19:59.457Z,8.00
2022-10-09T09:20:52.084Z,9.23
2022-10-09T09:21:50.222Z,8.13
2022-10-09T09:22:40.345Z,8.45
2022-10-09T09:23:31.114Z,7.80
2022-10-09T09:24:20.488Z,7.07
2022-10-09T09:25:28.856Z,9.40
2022-10-09T09:26:20.881Z,7.68
2022-10-09T09:27:19.732Z,8.02
2022-10-09T09:28:31.034Z,7.00
2022-10-09T09:29:24.292Z,6.47
2022-10-09T09:30:21.423Z,5.68
2022-10-09T09:31:23.622Z,9.27
2022-10-09T09:32:18.385Z,7.95
2022-10-09T09:33:18.393Z,8.65
2022-10-09T09:34:26.923Z,6.62
2022-10-09T09:35:33.065Z,11.32
2022-10-09T09:36:31.125Z,8.43
2022-10-09T09:37:17.940Z,7.03
2022-10-09T09:38:04.687Z,8.25
2022-10-09T09:39:35.410Z,9.07
2022-10-09T09:41:06.374Z,9.90
2022-10-09T09:41:56.236Z,7.37
2022-10-09T09:42:44.132Z,7.45
2022-10-09T09:43:31.377Z,6.55
2022-10-09T09:44:19.133Z,6.30
2022-10-09T09:45:07.962Z,7.45
2022-10-09T09:45:56.804Z,9.82
2022-10-09T09:46:44.578Z,7.22
2022-10-09T09:47:31.378Z,7.90
2022-10-09T09:48:37.157Z,6.87
2022-10-09T09:49:29.616Z,6.37
2022-10-09T09:50:42.360Z,6.30
2022-10-09T09:51:30.101Z,7.05
2022-10-09T09:52:17.279Z,6.75
2022-10-09T09:53:24.144Z,6.32
2022-10-09T09:54:30.767Z,6.22
2022-10-09T09:55:32.688Z,6.78
2022-10-09T09:56:20.304Z,7.03
2022-10-09T09:57:14.920Z,4.97
2022-10-09T09:58:08.836Z,6.22
2022-10-09T09:58:56.330Z,7.93
2022-10-09T09:59:48.065Z,10.13
2022-10-09T10:00:35.740Z,6.93
2022-10-09T10:01:31.104Z,7.00
2022-10-09T10:02:20.501Z,5.93
2022-10-09T10:03:15.925Z,5.05
2022-10-09T10:04:04.305Z,7.72
2022-10-09T10:04:54.217Z,6.03
2022-10-09T10:05:43.180Z,8.57
2022-10-09T10:06:32.279Z,6.20
2022-10-09T10:07:29.845Z,5.30
2022-10-09T10:08:31.416Z,7.93
2022-10-09T10:09:19.381Z,6.53
2022-10-09T10:10:07.685Z,7.47
2022-10-09T10:10:57.853Z,7.35
2022-10-09T10:11:50.956Z,5.95
2022-10-09T10:12:42.369Z,5.80
2022-10-09T10:13:38.445Z,5.72
2022-10-09T10:14:25.938Z,5.03
2022-10-09T10:15:23.062Z,5.93
2022-10-09T10:16:10.022Z,6.65
2022-10-09T10:16:58.133Z,8.18
2022-10-09T10:17:45.053Z,7.90
2022-10-09T10:18:38.340Z,7.95
2022-10-09T10:19:26.344Z,4.93
2022-10-09T10:20:16.701Z,6.62
2022-10-09T10:21:12.834Z,6.95
2022-10-09T10:22:03.740Z,5.68
2022-10-09T10:22:55.851Z,5.87
2022-10-09T10:24:06.482Z,6.40
2022-10-09T10:24:58.422Z,4.72
2022-10-09T10:25:46.033Z,7.35
2022-10-09T10:26:38.355Z,6.22
2022-10-09T10:27:29.902Z,5.70
2022-10-09T10:28:21.359Z,5.35
2022-10-09T10:29:37.961Z,5.85
2022-10-09T10:30:24.822Z,5.62
2022-10-09T10:31:19.364Z,5.53
2022-10-09T10:32:12.652Z,4.35
2022-10-09T10:33:06.071Z,7.45
2022-10-09T10:33:56.167Z,6.45
2022-10-09T10:34:50.313Z,4.85
2022-10-09T10:35:39.853Z,5.12
2022-10-09T10:36:27.781Z,10.90
2022-10-09T10:37:14.901Z,5.95
2022-10-09T10:38:30.973Z,7.03
2022-10-09T10:39:49.052Z,4.72
2022-10-09T10:41:21.160Z,6.65
2022-10-09T10:42:25.181Z,8.35
2022-10-09T10:43:53.731Z,4.90
2022-10-09T10:45:10.252Z,6.18
2022-10-09T10:46:22.958Z,6.07
2022-10-09T10:47:19.088Z,5.65
2022-10-09T10:48:23.871Z,6.75
2022-10-09T10:49:12.151Z,6.78
2022-10-09T10:49:59.021Z,7.07
2022-10-09T10:51:37.222Z,5.85
2022-10-09T10:52:45.309Z,5.37
2022-10-09T10:53:43.081Z,12.82
2022-10-09T10:54:55.150Z,11.77
2022-10-09T10:55:47.934Z,8.27
2022-10-09T10:56:41.671Z,5.97
2022-10-09T10:57:28.580Z,10.82
2022-10-09T10:58:38.900Z,6.87
2022-10-09T10:59:55.220Z,11.68
2022-10-09T11:00:55.265Z,43.05
2022-10-09T11:02:07.561Z,27.65
2022-10-09T11:03:03.449Z,11.23
2022-10-09T11:04:11.611Z,12.13
2022-10-09T11:05:22.413Z,10.88
2022-10-09T11:07:09.471Z,11.63
2022-10-09T11:08:16.791Z,6.72
2022-10-09T11:09:15.451Z,5.78
2022-10-09T11:10:20.641Z,8.57
2022-10-09T11:11:19.390Z,5.78
2022-10-09T11:12:47.155Z,6.18
2022-10-09T11:13:48.731Z,5.22
2022-10-09T11:14:38.572Z,8.90
2022-10-09T11:15:37.646Z,5.87
2022-10-09T11:16:38.412Z,5.68
2022-10-09T11:17:35.742Z,5.45
2022-10-09T11:18:28.430Z,4.22
2022-10-09T11:19:39.501Z,5.35
2022-10-09T11:20:53.260Z,4.97
2022-10-09T11:22:00.680Z,8.73
2022-10-09T11:23:03.552Z,5.53
2022-10-09T11:24:26.930Z,6.68
2022-10-09T11:25:29.802Z,4.43
2022-10-09T11:26:22.370Z,4.22
2022-10-09T11:27:19.062Z,7.43
2022-10-09T11:28:28.014Z,4.70
2022-10-09T11:29:25.240Z,5.30
2022-10-09T11:30:15.443Z,6.03
2022-10-09T11:31:10.195Z,8.25
2022-10-09T11:32:02.533Z,5.50
2022-10-09T11:33:00.112Z,7.90
2022-10-09T11:33:51.550Z,5.12
2022-10-09T11:34:43.540Z,5.70
2022-10-09T11:35:38.431Z,7.12
2022-10-09T11:36:28.345Z,5.10
2022-10-09T11:37:21.298Z,4.45
2022-10-09T11:38:27.396Z,7.10
2022-10-09T11:39:16.249Z,4.10
2022-10-09T11:40:12.143Z,5.25
2022-10-09T11:41:01.523Z,4.65
2022-10-09T11:41:54.271Z,3.97
2022-10-09T11:42:41.391Z,4.22
2022-10-09T11:43:47.881Z,4.62
2022-10-09T11:44:53.623Z,3.72
2022-10-09T11:46:02.644Z,6.32
2022-10-09T11:47:01.909Z,3.17
2022-10-09T11:47:59.241Z,5.05
2022-10-09T11:49:24.070Z,3.35
2022-10-09T11:50:32.926Z,3.42
2022-10-09T11:51:44.362Z,4.65
2022-10-09T11:53:00.251Z,4.28
2022-10-09T11:53:47.462Z,4.03
2022-10-09T11:54:35.421Z,6.55
2022-10-09T11:55:25.537Z,4.37
2022-10-09T11:56:27.767Z,3.50
2022-10-09T11:57:15.588Z,3.65
2022-10-09T11:58:28.596Z,3.33
2022-10-09T11:59:29.152Z,5.62
2022-10-09T12:00:17.572Z,7.35
2022-10-09T12:01:22.970Z,5.10
2022-10-09T12:02:28.736Z,3.12
2022-10-09T12:03:44.821Z,4.10
2022-10-09T12:05:47.602Z,6.37
2022-10-09T12:06:47.243Z,2.70
2022-10-09T12:08:30.670Z,3.40
2022-10-09T12:09:25.272Z,6.05
2022-10-09T12:10:33.971Z,2.40
2022-10-09T12:11:21.411Z,4.47
2022-10-09T12:12:17.321Z,4.05
2022-10-09T12:13:07.222Z,4.12
2022-10-09T12:13:59.947Z,4.97
2022-10-09T12:14:52.709Z,7.62
2022-10-09T12:15:53.242Z,3.20
2022-10-09T12:16:43.118Z,4.62
2022-10-09T12:17:34.544Z,5.15
2022-10-09T12:18:30.791Z,4.95
2022-10-09T12:19:37.311Z,4.87
2022-10-09T12:20:25.828Z,4.90
2022-10-09T12:21:23.903Z,4.37
2022-10-09T12:22:30.178Z,4.78
2022-10-09T12:23:26.829Z,4.72
2022-10-09T12:24:40.199Z,3.90
2022-10-09T12:25:31.126Z,5.85
2022-10-09T12:26:18.809Z,5.43
2022-10-09T12:27:06.418Z,5.00
2022-10-09T12:27:55.370Z,4.82
2022-10-09T12:28:48.738Z,5.53
2022-10-09T12:29:46.088Z,5.20
2022-10-09T12:30:37.020Z,5.03
2022-10-09T12:31:25.077Z,4.47
2022-10-09T12:32:18.223Z,3.15
2022-10-09T12:33:18.412Z,2.87
2022-10-09T12:34:21.101Z,6.35
2022-10-09T12:35:32.661Z,3.62
2022-10-09T12:36:25.901Z,3.33
2022-10-09T12:37:16.241Z,3.85
2022-10-09T12:38:03.644Z,3.22
2022-10-09T12:38:51.180Z,3.83
2022-10-09T12:39:38.290Z,4.80
2022-10-09T12:40:30.398Z,3.20
2022-10-09T12:41:25.305Z,4.28
2022-10-09T12:42:20.104Z,2.42
2022-10-09T12:43:08.024Z,2.58
2022-10-09T12:43:56.423Z,4.25
2022-10-09T12:44:44.900Z,4.37
2022-10-09T12:45:32.670Z,3.08
2022-10-09T12:46:30.892Z,3.70
2022-10-09T12:47:22.435Z,5.28
2022-10-09T12:48:11.032Z,4.07
2022-10-09T12:48:59.311Z,4.35
2022-10-09T12:49:58.516Z,3.45
2022-10-09T12:50:45.417Z,3.47
2022-10-09T12:51:33.595Z,6.25
2022-10-09T12:52:20.530Z,6.75
2022-10-09T12:53:16.969Z,6.00
2022-10-09T12:54:09.291Z,4.28
2022-10-09T12:54:56.312Z,3.60
2022-10-09T12:55:52.086Z,4.32
2022-10-09T12:56:39.602Z,4.35
2022-10-09T12:57:28.017Z,3.67
2022-10-09T12:58:24.145Z,5.87
2022-10-09T12:59:12.811Z,2.97
2022-10-09T12:59:59.845Z,6.43
2022-10-09T13:00:52.428Z,3.22
2022-10-09T13:01:40.621Z,5.60
2022-10-09T13:02:27.719Z,3.80
2022-10-09T13:03:28.791Z,2.65
2022-10-09T13:04:31.274Z,3.75
2022-10-09T13:05:18.281Z,3.80
2022-10-09T13:06:08.282Z,6.35
2022-10-09T13:06:57.091Z,4.07
2022-10-09T13:07:52.181Z,4.47
2022-10-09T13:08:40.713Z,4.22
2022-10-09T13:09:35.974Z,5.32
2022-10-09T13:10:24.264Z,4.18
2022-10-09T13:11:29.494Z,4.50
2022-10-09T13:12:23.125Z,7.28
2022-10-09T13:13:19.991Z,4.78
2022-10-09T13:14:21.312Z,5.37
2022-10-09T13:15:28.551Z,3.37
2022-10-09T13:16:15.512Z,8.80
2022-10-09T13:17:02.934Z,4.62
2022-10-09T13:17:49.964Z,5.07
2022-10-09T13:18:38.486Z,6.28
2022-10-09T13:19:33.270Z,4.62
2022-10-09T13:20:20.161Z,3.95
2022-10-09T13:21:20.442Z,5.60
2022-10-09T13:22:19.544Z,3.92
2022-10-09T13:23:06.880Z,4.68
2022-10-09T13:23:53.871Z,4.05
2022-10-09T13:24:40.742Z,3.10
2022-10-09T13:25:38.577Z,5.95
2022-10-09T13:26:30.221Z,4.45
2022-10-09T13:27:23.920Z,5.15
2022-10-09T13:28:21.541Z,4.15
2022-10-09T13:29:32.949Z,3.78
2022-10-09T13:30:21.405Z,3.70
2022-10-09T13:31:08.842Z,3.12
2022-10-09T13:31:55.893Z,4.60
2022-10-09T13:32:42.661Z,4.20
2022-10-09T13:33:29.462Z,4.43
2022-10-09T13:34:16.659Z,4.15
2022-10-09T13:35:03.738Z,4.37
2022-10-09T13:35:50.694Z,4.25
2022-10-09T13:36:37.500Z,4.25
2022-10-09T13:37:26.142Z,5.75
2022-10-09T13:38:15.962Z,5.20
2022-10-09T13:39:02.926Z,3.78
2022-10-09T13:40:00.332Z,4.55
2022-10-09T13:40:47.866Z,2.97
2022-10-09T13:41:34.711Z,3.37
2022-10-09T13:42:22.680Z,5.00
2022-10-09T13:43:12.362Z,4.25
2022-10-09T13:43:59.209Z,4.70